Time;durP1;ratioP1;P1;durP2;ratioP2;P2;SDS_P1;SDS_P2;PMS_P1;PMS_P2;Temp;Humidity;BMP_temperature;BMP_pressure;BME280_temperature;BME280_humidity;BME280_pressure;Samples;Min_cycle;Max_cycle;Signal;HPM_P1;HPM_P2
2023/07/06 00:01:46;;;;;;;12.10;6.32;;;;;;;;;;5094028;28;20672;-48
2023/07/06 00:04:14;;;;;;;13.55;7.20;;;;;;;;;;5093842;28;20209;-48
2023/07/06 00:06:41;;;;;;;10.52;6.25;;;;;;;;;;5093525;28;20209;-52
2023/07/06 00:09:09;;;;;;;12.18;6.63;;;;;;;;;;5093361;28;20222;-48
2023/07/06 00:11:38;;;;;;;12.52;6.78;;;;;;;;;;5093696;28;20218;-47
2023/07/06 00:14:11;;;;;;;15.02;7.32;;;;;;;;;;5093357;28;20675;-48
2023/07/06 00:16:41;;;;;;;15.27;7.25;;;;;;;;;;5093761;28;20195;-47
2023/07/06 00:19:09;;;;;;;15.40;7.45;;;;;;;;;;5093660;28;20191;-49
2023/07/06 00:21:36;;;;;;;10.43;6.70;;;;;;;;;;5092916;28;20203;-48
2023/07/06 00:24:04;;;;;;;18.75;6.88;;;;;;;;;;5093259;28;20679;-47
2023/07/06 00:26:31;;;;;;;13.05;6.75;;;;;;;;;;5092080;28;20229;-49
2023/07/06 00:28:58;;;;;;;11.50;6.80;;;;;;;;;;5092646;28;20252;-48
2023/07/06 00:31:32;;;;;;;12.57;6.72;;;;;;;;;;5093434;28;20206;-48
2023/07/06 00:34:03;;;;;;;13.00;7.00;;;;;;;;;;5092642;28;20215;-48
2023/07/06 00:36:32;;;;;;;11.85;6.68;;;;;;;;;;5093435;28;20670;-49
2023/07/06 00:39:02;;;;;;;9.50;6.20;;;;;;;;;;5093152;28;20202;-48
2023/07/06 00:41:30;;;;;;;10.50;5.78;;;;;;;;;;5093199;28;20214;-49
2023/07/06 00:43:59;;;;;;;10.43;6.70;;;;;;;;;;5093356;28;20231;-48
2023/07/06 00:46:39;;;;;;;11.80;5.85;;;;;;;;;;5092185;28;20202;-50
2023/07/06 00:49:17;;;;;;;12.88;5.85;;;;;;;;;;5091711;28;20229;-50
2023/07/06 00:51:44;;;;;;;11.48;6.38;;;;;;;;;;5096278;28;20210;-50
2023/07/06 00:54:16;;;;;;;14.80;5.45;;;;;;;;;;5096493;28;20559;-51
2023/07/06 00:56:45;;;;;;;10.57;5.60;;;;;;;;;;5096415;28;20285;-48
2023/07/06 00:59:15;;;;;;;11.93;5.82;;;;;;;;;;5096612;28;20218;-50
2023/07/06 01:01:44;;;;;;;10.00;5.65;;;;;;;;;;5095927;28;20210;-48
2023/07/06 01:04:14;;;;;;;11.18;5.40;;;;;;;;;;5096899;28;20203;-49
2023/07/06 01:06:47;;;;;;;13.20;6.20;;;;;;;;;;5094752;28;20198;-48
2023/07/06 01:09:15;;;;;;;11.10;5.80;;;;;;;;;;5096182;28;20218;-48
2023/07/06 01:11:42;;;;;;;8.85;5.32;;;;;;;;;;5096152;28;20627;-49
2023/07/06 01:14:13;;;;;;;11.05;5.60;;;;;;;;;;5097263;28;20304;-48
2023/07/06 01:17:03;;;;;;;10.70;5.43;;;;;;;;;;5097086;28;20208;-48
2023/07/06 01:19:51;;;;;;;12.70;5.45;;;;;;;;;;5097535;28;20198;-50
2023/07/06 01:22:48;;;;;;;8.90;5.13;;;;;;;;;;5097024;28;20270;-48
2023/07/06 01:25:21;;;;;;;14.82;5.45;;;;;;;;;;5097281;28;20347;-48
2023/07/06 01:28:35;;;;;;;14.57;5.03;;;;;;;;;;5096882;28;20191;-49
2023/07/06 01:31:29;;;;;;;8.88;4.80;;;;;;;;;;5087798;28;20207;-49
2023/07/06 01:34:08;;;;;;;8.35;4.95;;;;;;;;;;5078798;28;20198;-49
2023/07/06 01:36:51;;;;;;;8.00;5.35;;;;;;;;;;5095118;28;20701;-50
2023/07/06 01:39:21;;;;;;;9.15;5.50;;;;;;;;;;5095489;28;20191;-48
2023/07/06 01:42:14;;;;;;;9.55;4.80;;;;;;;;;;5096061;28;20183;-49
2023/07/06 01:44:46;;;;;;;10.05;4.28;;;;;;;;;;5091372;28;20225;-49
2023/07/06 01:47:15;;;;;;;7.03;4.80;;;;;;;;;;5078753;28;20206;-49
2023/07/06 01:49:42;;;;;;;10.07;5.32;;;;;;;;;;5094708;28;20218;-50
2023/07/06 01:52:09;;;;;;;10.30;5.88;;;;;;;;;;5095904;28;20686;-49
2023/07/06 01:54:47;;;;;;;8.55;5.38;;;;;;;;;;5096327;28;20256;-48
2023/07/06 01:57:20;;;;;;;9.63;5.35;;;;;;;;;;5094531;28;20206;-48
2023/07/06 01:59:49;;;;;;;9.55;5.25;;;;;;;;;;5078160;28;20663;-49
2023/07/06 02:02:19;;;;;;;8.90;5.30;;;;;;;;;;5093626;28;20281;-51
2023/07/06 02:04:47;;;;;;;13.30;5.32;;;;;;;;;;5078827;28;20203;-49
2023/07/06 02:07:16;;;;;;;10.52;5.40;;;;;;;;;;5095537;28;20229;-49
2023/07/06 02:09:44;;;;;;;8.65;5.45;;;;;;;;;;5093862;28;20275;-49
2023/07/06 02:12:14;;;;;;;8.52;4.85;;;;;;;;;;5094621;28;20207;-48
2023/07/06 02:14:42;;;;;;;9.13;5.13;;;;;;;;;;5094686;28;20552;-51
2023/07/06 02:17:11;;;;;;;9.55;5.45;;;;;;;;;;5094834;28;20198;-48
2023/07/06 02:19:38;;;;;;;8.85;4.95;;;;;;;;;;5096096;28;20190;-49
2023/07/06 02:22:08;;;;;;;8.80;4.88;;;;;;;;;;5095802;28;20233;-49
2023/07/06 02:24:34;;;;;;;9.02;5.35;;;;;;;;;;5095230;28;20237;-51
2023/07/06 02:27:05;;;;;;;8.68;4.53;;;;;;;;;;5094519;28;20278;-48
2023/07/06 02:29:33;;;;;;;11.15;5.07;;;;;;;;;;5095456;28;20779;-50
2023/07/06 02:32:00;;;;;;;11.80;5.57;;;;;;;;;;5094608;28;20198;-48
2023/07/06 02:34:28;;;;;;;8.65;5.22;;;;;;;;;;5095597;28;20255;-48
2023/07/06 02:36:55;;;;;;;9.30;5.15;;;;;;;;;;5095092;28;20206;-50
2023/07/06 02:39:27;;;;;;;11.93;6.05;;;;;;;;;;5093909;28;20544;-49
2023/07/06 02:41:56;;;;;;;9.98;5.28;;;;;;;;;;5094974;28;20538;-50
2023/07/06 02:44:24;;;;;;;10.05;5.93;;;;;;;;;;5095457;28;20663;-49
2023/07/06 02:46:51;;;;;;;10.85;5.72;;;;;;;;;;5094182;28;20206;-48
2023/07/06 02:49:18;;;;;;;10.70;5.38;;;;;;;;;;5095725;28;20229;-49
2023/07/06 02:51:48;;;;;;;8.52;5.63;;;;;;;;;;5095101;28;20256;-48
2023/07/06 02:54:15;;;;;;;12.18;5.30;;;;;;;;;;5094158;28;20619;-49
2023/07/06 02:56:43;;;;;;;9.98;5.50;;;;;;;;;;5095517;28;20203;-51
2023/07/06 02:59:10;;;;;;;9.57;5.65;;;;;;;;;;5094318;28;20207;-48
2023/07/06 03:01:38;;;;;;;9.02;4.90;;;;;;;;;;5094226;28;20256;-51
2023/07/06 03:04:11;;;;;;;13.88;6.63;;;;;;;;;;5095050;28;20203;-50
2023/07/06 03:06:39;;;;;;;8.27;4.88;;;;;;;;;;5093851;28;20199;-49
2023/07/06 03:09:10;;;;;;;11.07;6.13;;;;;;;;;;5094324;28;20260;-49
2023/07/06 03:11:37;;;;;;;10.15;5.18;;;;;;;;;;5094836;28;20603;-49
2023/07/06 03:14:04;;;;;;;8.85;4.80;;;;;;;;;;5094072;28;20199;-50
2023/07/06 03:16:39;;;;;;;9.73;5.22;;;;;;;;;;5093358;28;20203;-49
2023/07/06 03:19:09;;;;;;;10.60;6.03;;;;;;;;;;5093671;28;20202;-49
2023/07/06 03:21:40;;;;;;;12.88;5.28;;;;;;;;;;5094510;28;20564;-49
2023/07/06 03:24:07;;;;;;;9.93;5.78;;;;;;;;;;5092768;28;20305;-50
2023/07/06 03:26:36;;;;;;;14.23;5.40;;;;;;;;;;5092687;28;20584;-48
2023/07/06 03:29:04;;;;;;;9.75;5.10;;;;;;;;;;5094765;28;20310;-48
2023/07/06 03:31:32;;;;;;;9.55;5.57;;;;;;;;;;5087983;28;20203;-52
2023/07/06 03:34:01;;;;;;;11.95;5.22;;;;;;;;;;5089054;28;20205;-49
2023/07/06 03:36:28;;;;;;;9.75;5.30;;;;;;;;;;5088804;28;20195;-49
2023/07/06 03:38:57;;;;;;;10.40;5.93;;;;;;;;;;5087676;28;20200;-50
2023/07/06 03:41:24;;;;;;;10.32;5.45;;;;;;;;;;5091268;28;20195;-50
2023/07/06 03:43:56;;;;;;;9.63;5.43;;;;;;;;;;5089305;28;20211;-50
2023/07/06 03:46:33;;;;;;;8.68;5.38;;;;;;;;;;5086679;28;20195;-50
2023/07/06 03:49:05;;;;;;;11.02;5.70;;;;;;;;;;5085072;28;20230;-50
2023/07/06 03:51:32;;;;;;;8.90;5.38;;;;;;;;;;5088776;28;20209;-54
2023/07/06 03:54:00;;;;;;;9.18;5.53;;;;;;;;;;5092343;28;20226;-49
2023/07/06 03:56:27;;;;;;;10.63;5.80;;;;;;;;;;5092819;28;20206;-51
2023/07/06 03:58:56;;;;;;;10.10;5.68;;;;;;;;;;5093362;28;20207;-53
2023/07/06 04:01:28;;;;;;;14.75;6.88;;;;;;;;;;5089956;28;20198;-50
2023/07/06 04:03:55;;;;;;;10.90;6.10;;;;;;;;;;5090756;28;20223;-49
2023/07/06 04:06:25;;;;;;;10.80;6.15;;;;;;;;;;5093209;28;20551;-49
2023/07/06 04:08:53;;;;;;;11.10;6.25;;;;;;;;;;5093172;28;20760;-49
2023/07/06 04:11:20;;;;;;;10.10;5.70;;;;;;;;;;5080947;28;20654;-49
2023/07/06 04:13:49;;;;;;;11.07;5.60;;;;;;;;;;5082580;28;20302;-47
2023/07/06 04:16:17;;;;;;;10.40;6.13;;;;;;;;;;5072213;28;20200;-49
2023/07/06 04:18:44;;;;;;;11.05;6.57;;;;;;;;;;5076244;28;20222;-47
2023/07/06 04:21:15;;;;;;;12.73;6.22;;;;;;;;;;5083888;28;20227;-48
2023/07/06 04:23:42;;;;;;;10.35;5.90;;;;;;;;;;5091296;28;20245;-50
2023/07/06 04:26:11;;;;;;;10.32;5.55;;;;;;;;;;5082536;28;20283;-50
2023/07/06 04:28:40;;;;;;;7.68;4.90;;;;;;;;;;5091870;28;20578;-49
2023/07/06 04:31:10;;;;;;;10.82;5.90;;;;;;;;;;5091083;28;20219;-48
2023/07/06 04:33:37;;;;;;;8.32;5.15;;;;;;;;;;5086579;28;20301;-50
2023/07/06 04:36:05;;;;;;;12.23;6.20;;;;;;;;;;5092280;28;20218;-50
2023/07/06 04:38:34;;;;;;;10.85;5.55;;;;;;;;;;5091179;28;20260;-49
2023/07/06 04:41:01;;;;;;;8.93;5.75;;;;;;;;;;5090450;28;20217;-48
2023/07/06 04:43:29;;;;;;;10.90;6.05;;;;;;;;;;5092655;28;20280;-48
2023/07/06 04:45:56;;;;;;;10.25;5.57;;;;;;;;;;5091989;28;20226;-47
2023/07/06 04:48:24;;;;;;;8.05;5.07;;;;;;;;;;5092339;28;20267;-48
2023/07/06 04:50:53;;;;;;;9.25;5.10;;;;;;;;;;5091989;28;20229;-48
2023/07/06 04:53:22;;;;;;;11.00;5.43;;;;;;;;;;5091967;28;20226;-50
2023/07/06 04:55:50;;;;;;;10.15;5.78;;;;;;;;;;5091716;28;20246;-48
2023/07/06 04:58:18;;;;;;;10.27;5.45;;;;;;;;;;5092019;28;20250;-48
2023/07/06 05:00:45;;;;;;;13.20;6.20;;;;;;;;;;5092438;28;20241;-49
2023/07/06 05:03:13;;;;;;;8.57;4.95;;;;;;;;;;5092171;28;20234;-47
2023/07/06 05:05:43;;;;;;;11.15;5.55;;;;;;;;;;5092270;28;20766;-47
2023/07/06 05:08:15;;;;;;;11.88;5.25;;;;;;;;;;5091409;28;20698;-48
2023/07/06 05:10:46;;;;;;;9.35;5.38;;;;;;;;;;5092092;28;20238;-48
2023/07/06 05:13:14;;;;;;;6.70;4.15;;;;;;;;;;5087334;28;20699;-47
2023/07/06 05:15:42;;;;;;;12.50;5.10;;;;;;;;;;5091028;28;21079;-47
2023/07/06 05:18:09;;;;;;;8.70;4.95;;;;;;;;;;5076296;28;20218;-47
2023/07/06 05:20:37;;;;;;;12.63;4.90;;;;;;;;;;5088238;28;20598;-46
2023/07/06 05:23:07;;;;;;;7.53;4.80;;;;;;;;;;5092460;28;20557;-46
2023/07/06 05:25:35;;;;;;;7.15;4.72;;;;;;;;;;5092404;28;20218;-47
2023/07/06 05:28:02;;;;;;;6.13;4.45;;;;;;;;;;5092511;28;20665;-46
2023/07/06 05:30:30;;;;;;;8.77;5.00;;;;;;;;;;5089669;28;20211;-46
2023/07/06 05:32:57;;;;;;;6.65;4.20;;;;;;;;;;5092442;28;20195;-49
2023/07/06 05:35:27;;;;;;;7.22;4.38;;;;;;;;;;5092450;28;20570;-48
2023/07/06 05:37:55;;;;;;;11.32;4.32;;;;;;;;;;5095860;28;20187;-46
2023/07/06 05:40:22;;;;;;;11.02;3.53;;;;;;;;;;5096604;28;20199;-46
2023/07/06 05:42:49;;;;;;;6.15;3.90;;;;;;;;;;5084898;28;20225;-47
2023/07/06 05:45:17;;;;;;;7.25;4.35;;;;;;;;;;5094903;28;20610;-47
2023/07/06 05:47:44;;;;;;;6.30;4.15;;;;;;;;;;5094796;28;20678;-48
2023/07/06 05:50:12;;;;;;;9.05;4.50;;;;;;;;;;5093695;28;20719;-46
2023/07/06 05:52:40;;;;;;;8.27;4.22;;;;;;;;;;5090138;28;20230;-47
2023/07/06 05:55:09;;;;;;;5.97;3.15;;;;;;;;;;5093884;28;20269;-46
2023/07/06 05:57:36;;;;;;;4.45;3.35;;;;;;;;;;5092676;28;20696;-46
2023/07/06 06:00:09;;;;;;;6.82;3.42;;;;;;;;;;5094786;28;20566;-46
2023/07/06 06:02:38;;;;;;;5.80;3.67;;;;;;;;;;5092726;28;20219;-47
2023/07/06 06:05:06;;;;;;;5.15;3.00;;;;;;;;;;5092610;28;20275;-46
2023/07/06 06:07:33;;;;;;;4.13;2.90;;;;;;;;;;5091896;28;20631;-47
2023/07/06 06:10:03;;;;;;;4.75;2.90;;;;;;;;;;5094583;28;20222;-48
2023/07/06 06:12:31;;;;;;;5.65;3.15;;;;;;;;;;5094299;28;20218;-46
2023/07/06 06:14:59;;;;;;;5.57;3.45;;;;;;;;;;5094291;28;20226;-48
2023/07/06 06:17:28;;;;;;;5.95;3.22;;;;;;;;;;5095018;28;20233;-47
2023/07/06 06:19:56;;;;;;;4.35;2.60;;;;;;;;;;5094709;28;20223;-47
2023/07/06 06:22:23;;;;;;;6.28;3.17;;;;;;;;;;5093938;28;20697;-47
2023/07/06 06:24:51;;;;;;;4.60;3.25;;;;;;;;;;5094682;28;20227;-46
2023/07/06 06:27:19;;;;;;;5.82;3.13;;;;;;;;;;5089974;28;20219;-52
2023/07/06 06:29:46;;;;;;;5.70;3.53;;;;;;;;;;5092117;28;20234;-46
2023/07/06 06:32:14;;;;;;;6.20;3.25;;;;;;;;;;5092960;28;20647;-47
2023/07/06 06:34:42;;;;;;;3.90;2.70;;;;;;;;;;5093027;28;20234;-47
2023/07/06 06:37:09;;;;;;;6.32;3.22;;;;;;;;;;5093493;28;20234;-48
2023/07/06 06:39:39;;;;;;;5.05;2.80;;;;;;;;;;5093453;28;20595;-47
2023/07/06 06:42:07;;;;;;;4.45;2.78;;;;;;;;;;5092843;28;20579;-46
2023/07/06 06:44:40;;;;;;;4.93;2.40;;;;;;;;;;5092659;28;20227;-48
2023/07/06 06:47:07;;;;;;;5.28;2.60;;;;;;;;;;5094395;28;20297;-46
2023/07/06 06:49:34;;;;;;;4.75;2.95;;;;;;;;;;5093951;28;20238;-47
2023/07/06 06:52:04;;;;;;;3.95;2.70;;;;;;;;;;5094306;28;20706;-47
2023/07/06 06:54:33;;;;;;;3.25;2.10;;;;;;;;;;5094482;28;20283;-46
2023/07/06 06:57:01;;;;;;;4.28;2.55;;;;;;;;;;5093180;28;20701;-45
2023/07/06 06:59:28;;;;;;;3.83;2.22;;;;;;;;;;5094456;28;20726;-46
2023/07/06 07:02:01;;;;;;;4.07;2.60;;;;;;;;;;5094152;28;20269;-46
2023/07/06 07:04:31;;;;;;;3.25;2.20;;;;;;;;;;5094695;28;20226;-46
2023/07/06 07:07:03;;;;;;;3.15;2.10;;;;;;;;;;5093913;28;20707;-49
2023/07/06 07:09:30;;;;;;;4.90;2.35;;;;;;;;;;5094573;28;20234;-46
2023/07/06 07:11:57;;;;;;;3.53;2.28;;;;;;;;;;5093089;28;20729;-46
2023/07/06 07:14:25;;;;;;;3.22;2.50;;;;;;;;;;5094491;28;20229;-46
2023/07/06 07:16:52;;;;;;;3.03;2.15;;;;;;;;;;5094095;28;20745;-46
2023/07/06 07:19:21;;;;;;;4.47;2.33;;;;;;;;;;5094076;28;20219;-45
2023/07/06 07:21:50;;;;;;;3.70;2.33;;;;;;;;;;5093830;28;20219;-46
2023/07/06 07:24:17;;;;;;;4.30;2.40;;;;;;;;;;5093761;28;20238;-46
2023/07/06 07:26:48;;;;;;;4.07;2.40;;;;;;;;;;5093157;28;20309;-46
2023/07/06 07:29:16;;;;;;;3.92;2.35;;;;;;;;;;5093396;28;20232;-45
2023/07/06 07:31:43;;;;;;;3.30;2.35;;;;;;;;;;5093702;28;20305;-45
2023/07/06 07:34:10;;;;;;;3.03;1.80;;;;;;;;;;5093507;28;20714;-46
2023/07/06 07:36:38;;;;;;;5.82;2.55;;;;;;;;;;5093896;28;20222;-47
2023/07/06 07:39:05;;;;;;;2.50;1.98;;;;;;;;;;5093340;28;20639;-46
2023/07/06 07:41:32;;;;;;;3.08;2.10;;;;;;;;;;5092757;28;20235;-47
2023/07/06 07:44:01;;;;;;;3.72;2.20;;;;;;;;;;5093173;28;20240;-45
2023/07/06 07:46:29;;;;;;;3.20;2.10;;;;;;;;;;5093392;28;20746;-46
2023/07/06 07:48:57;;;;;;;4.03;2.40;;;;;;;;;;5093088;28;20734;-45
2023/07/06 07:51:26;;;;;;;3.58;2.25;;;;;;;;;;5092643;28;20230;-45
2023/07/06 07:53:54;;;;;;;3.45;2.10;;;;;;;;;;5092766;28;20252;-46
2023/07/06 07:56:24;;;;;;;3.80;2.22;;;;;;;;;;5091834;28;20210;-47
2023/07/06 07:58:51;;;;;;;3.65;2.25;;;;;;;;;;5093012;28;20230;-47
2023/07/06 08:01:24;;;;;;;3.88;1.95;;;;;;;;;;5089765;28;20214;-45
2023/07/06 08:03:57;;;;;;;2.95;2.10;;;;;;;;;;5084260;27;20219;-47
2023/07/06 08:06:24;;;;;;;4.32;2.22;;;;;;;;;;5073241;28;20227;-45
2023/07/06 08:08:51;;;;;;;3.40;2.15;;;;;;;;;;5073145;28;20231;-45
2023/07/06 08:11:21;;;;;;;3.30;1.80;;;;;;;;;;5072196;28;20330;-46
2023/07/06 08:13:50;;;;;;;4.03;2.22;;;;;;;;;;5072907;28;20257;-46
2023/07/06 08:16:19;;;;;;;3.80;1.70;;;;;;;;;;5072773;28;20692;-45
2023/07/06 08:18:49;;;;;;;2.75;1.88;;;;;;;;;;5072926;28;20684;-45
2023/07/06 08:21:26;;;;;;;3.60;2.03;;;;;;;;;;5072076;28;20219;-47
2023/07/06 08:24:11;;;;;;;3.42;1.83;;;;;;;;;;5072402;28;20219;-47
2023/07/06 08:26:38;;;;;;;2.45;1.80;;;;;;;;;;5071772;28;20790;-46
2023/07/06 08:29:06;;;;;;;2.92;1.40;;;;;;;;;;5090885;28;20276;-46
2023/07/06 08:31:33;;;;;;;2.97;1.90;;;;;;;;;;5092797;28;20234;-46
2023/07/06 08:34:01;;;;;;;4.68;2.58;;;;;;;;;;5092576;28;20231;-47
2023/07/06 08:36:28;;;;;;;4.28;2.65;;;;;;;;;;5092792;28;20219;-45
2023/07/06 08:38:56;;;;;;;4.88;2.25;;;;;;;;;;5092762;28;20223;-46
2023/07/06 08:41:37;;;;;;;4.45;2.13;;;;;;;;;;5092255;28;20723;-46
2023/07/06 08:44:07;;;;;;;2.95;2.08;;;;;;;;;;5092155;28;20642;-46
2023/07/06 08:46:38;;;;;;;5.15;2.15;;;;;;;;;;5091744;28;20633;-45
2023/07/06 08:49:24;;;;;;;4.70;2.17;;;;;;;;;;5091329;28;20227;-46
2023/07/06 08:51:56;;;;;;;2.90;1.75;;;;;;;;;;5091227;28;20244;-45
2023/07/06 08:54:25;;;;;;;6.25;2.40;;;;;;;;;;5092245;28;20230;-47
2023/07/06 08:56:52;;;;;;;2.95;2.08;;;;;;;;;;5092171;28;20317;-46
2023/07/06 08:59:38;;;;;;;2.72;2.00;;;;;;;;;;5071168;28;20227;-45
2023/07/06 09:02:21;;;;;;;3.10;2.05;;;;;;;;;;5071800;28;20223;-47
2023/07/06 09:04:50;;;;;;;4.70;1.90;;;;;;;;;;5071040;28;20223;-46
2023/07/06 09:07:21;;;;;;;3.22;2.35;;;;;;;;;;5071977;28;20624;-45
2023/07/06 09:09:49;;;;;;;2.53;1.92;;;;;;;;;;5071417;28;20231;-45
2023/07/06 09:12:33;;;;;;;3.83;2.05;;;;;;;;;;5074375;28;20622;-47
2023/07/06 09:15:02;;;;;;;4.10;2.08;;;;;;;;;;5074875;28;20231;-46
2023/07/06 09:17:29;;;;;;;2.05;1.50;;;;;;;;;;5076035;28;20226;-46
2023/07/06 09:19:57;;;;;;;2.35;1.63;;;;;;;;;;5076103;28;20234;-46
2023/07/06 09:22:24;;;;;;;3.50;1.90;;;;;;;;;;5076232;28;20703;-46
2023/07/06 09:24:51;;;;;;;3.05;2.10;;;;;;;;;;5075090;28;20235;-46
2023/07/06 09:27:23;;;;;;;3.33;2.05;;;;;;;;;;5079645;28;20218;-46
2023/07/06 09:30:05;;;;;;;3.55;2.05;;;;;;;;;;5096056;28;20226;-45
2023/07/06 09:32:32;;;;;;;4.60;2.13;;;;;;;;;;5096493;28;20617;-46
2023/07/06 09:35:08;;;;;;;4.82;2.45;;;;;;;;;;5095659;28;20222;-46
2023/07/06 09:37:48;;;;;;;4.32;2.30;;;;;;;;;;5096252;28;20578;-45
2023/07/06 09:40:16;;;;;;;3.40;2.30;;;;;;;;;;5094860;28;20218;-46
2023/07/06 09:42:44;;;;;;;4.25;2.50;;;;;;;;;;5094496;28;20222;-46
2023/07/06 09:45:22;;;;;;;3.05;2.10;;;;;;;;;;5094233;28;20223;-48
2023/07/06 09:47:54;;;;;;;5.03;2.30;;;;;;;;;;5093798;28;20237;-45
2023/07/06 09:50:27;;;;;;;3.15;2.00;;;;;;;;;;5094567;28;20226;-46
2023/07/06 09:52:56;;;;;;;5.32;1.92;;;;;;;;;;5094621;28;20624;-46
2023/07/06 09:55:29;;;;;;;3.78;2.17;;;;;;;;;;5094251;28;20237;-46
2023/07/06 09:57:57;;;;;;;2.35;1.90;;;;;;;;;;5095646;28;20702;-45
2023/07/06 10:00:33;;;;;;;4.22;1.80;;;;;;;;;;5096512;28;20226;-46
2023/07/06 10:03:08;;;;;;;3.38;2.10;;;;;;;;;;5094482;28;20202;-45
2023/07/06 10:05:44;;;;;;;2.75;1.85;;;;;;;;;;5096068;28;20606;-45
2023/07/06 10:08:16;;;;;;;4.13;1.83;;;;;;;;;;5094677;28;20669;-45
2023/07/06 10:11:03;;;;;;;2.33;1.70;;;;;;;;;;5092710;28;20219;-47
2023/07/06 10:13:46;;;;;;;3.00;1.98;;;;;;;;;;5095802;28;20199;-47
2023/07/06 10:16:22;;;;;;;2.83;1.83;;;;;;;;;;5094929;28;20693;-44
2023/07/06 10:19:04;;;;;;;3.40;1.75;;;;;;;;;;5095904;28;20240;-46
2023/07/06 10:22:20;;;;;;;3.15;1.73;;;;;;;;;;5095462;28;20639;-46
2023/07/06 10:25:04;;;;;;;2.00;1.60;;;;;;;;;;5093162;28;20301;-46
2023/07/06 10:27:38;;;;;;;2.28;1.60;;;;;;;;;;5084716;28;20197;-46
2023/07/06 10:30:11;;;;;;;2.75;2.00;;;;;;;;;;5095019;28;20224;-45
2023/07/06 10:32:42;;;;;;;2.83;2.17;;;;;;;;;;5092982;28;20651;-45
2023/07/06 10:35:14;;;;;;;2.88;1.77;;;;;;;;;;5094930;28;20203;-45
2023/07/06 10:37:44;;;;;;;2.92;1.85;;;;;;;;;;5096117;28;20293;-47
2023/07/06 10:40:14;;;;;;;3.63;2.35;;;;;;;;;;5096065;28;20237;-45
2023/07/06 10:42:46;;;;;;;2.97;1.88;;;;;;;;;;5096058;28;20198;-44
2023/07/06 10:45:44;;;;;;;3.13;1.85;;;;;;;;;;5094375;28;20222;-46
2023/07/06 10:48:21;;;;;;;3.97;2.33;;;;;;;;;;5084868;28;20210;-46
2023/07/06 10:51:04;;;;;;;2.47;1.95;;;;;;;;;;5087425;28;20251;-46
2023/07/06 10:53:34;;;;;;;4.07;1.83;;;;;;;;;;5094874;28;20241;-46
2023/07/06 10:56:01;;;;;;;3.75;1.90;;;;;;;;;;5081403;28;20222;-46
2023/07/06 10:58:36;;;;;;;3.78;2.17;;;;;;;;;;5091802;28;20226;-46
2023/07/06 11:01:08;;;;;;;5.75;2.03;;;;;;;;;;5084697;28;20222;-46
2023/07/06 11:03:38;;;;;;;3.15;2.38;;;;;;;;;;5073363;28;20227;-46
2023/07/06 11:06:09;;;;;;;4.03;2.03;;;;;;;;;;5085568;28;20230;-46
2023/07/06 11:08:58;;;;;;;3.25;1.98;;;;;;;;;;5073145;28;20220;-47
2023/07/06 11:11:27;;;;;;;2.92;2.10;;;;;;;;;;5074259;28;20313;-47
2023/07/06 11:13:55;;;;;;;3.50;2.10;;;;;;;;;;5074228;28;20219;-46
2023/07/06 11:16:42;;;;;;;3.63;2.30;;;;;;;;;;5091005;28;20242;-46
2023/07/06 11:19:16;;;;;;;3.58;2.10;;;;;;;;;;5093117;28;20246;-47
2023/07/06 11:21:47;;;;;;;3.40;2.00;;;;;;;;;;5092032;27;20214;-45
2023/07/06 11:24:17;;;;;;;3.65;2.45;;;;;;;;;;5093039;28;20226;-46
2023/07/06 11:27:01;;;;;;;2.70;2.03;;;;;;;;;;5092770;28;20230;-47
2023/07/06 11:29:30;;;;;;;4.25;2.35;;;;;;;;;;5094583;28;20230;-48
2023/07/06 11:32:20;;;;;;;4.15;2.60;;;;;;;;;;5092814;28;21047;-46
2023/07/06 11:35:09;;;;;;;3.40;2.20;;;;;;;;;;5091016;28;20268;-49
2023/07/06 11:38:01;;;;;;;2.90;2.00;;;;;;;;;;5088060;28;20725;-47
2023/07/06 11:41:00;;;;;;;3.80;1.80;;;;;;;;;;5085295;28;20763;-48
2023/07/06 11:43:34;;;;;;;2.58;2.00;;;;;;;;;;5091417;28;20670;-46
2023/07/06 11:46:36;;;;;;;4.22;2.15;;;;;;;;;;5093493;28;20246;-45
2023/07/06 11:49:41;;;;;;;3.28;1.95;;;;;;;;;;5090489;28;20248;-47
2023/07/06 11:52:21;;;;;;;2.28;1.67;;;;;;;;;;5073144;28;20231;-46
2023/07/06 11:55:04;;;;;;;9.88;2.40;;;;;;;;;;5088834;28;20626;-48
2023/07/06 11:57:44;;;;;;;2.60;2.00;;;;;;;;;;5078276;28;20210;-44
2023/07/06 12:03:08;;;;;;;3.47;1.80;;;;;;;;;;5092299;28;20267;-50
2023/07/06 12:05:41;;;;;;;4.10;2.38;;;;;;;;;;5093101;28;20214;-46
2023/07/06 12:08:16;;;;;;;7.55;2.22;;;;;;;;;;5089489;28;20226;-51
2023/07/06 12:10:52;;;;;;;2.78;1.98;;;;;;;;;;5091555;28;20606;-49
2023/07/06 12:13:47;;;;;;;2.47;1.73;;;;;;;;;;5092128;28;20189;-53
2023/07/06 12:16:25;;;;;;;6.20;1.88;;;;;;;;;;5089605;28;20206;-48
2023/07/06 12:19:05;;;;;;;3.55;1.98;;;;;;;;;;5091129;28;20574;-41
2023/07/06 12:21:38;;;;;;;3.05;2.10;;;;;;;;;;5088200;28;20210;-44
2023/07/06 12:24:12;;;;;;;5.72;2.28;;;;;;;;;;5091228;28;20644;-48
2023/07/06 12:26:47;;;;;;;2.72;1.90;;;;;;;;;;5073267;28;20206;-47
2023/07/06 12:29:15;;;;;;;2.45;1.85;;;;;;;;;;5073591;28;20203;-45
2023/07/06 12:31:43;;;;;;;4.50;1.85;;;;;;;;;;5073040;28;20222;-49
2023/07/06 12:34:19;;;;;;;2.25;1.88;;;;;;;;;;5080906;28;20280;-48
2023/07/06 12:36:49;;;;;;;3.42;2.00;;;;;;;;;;5087318;28;20219;-51
2023/07/06 12:39:19;;;;;;;3.25;2.05;;;;;;;;;;5074001;28;20741;-47
2023/07/06 12:41:47;;;;;;;3.40;2.10;;;;;;;;;;5091671;28;20219;-46
2023/07/06 12:44:17;;;;;;;3.42;2.30;;;;;;;;;;5091053;28;20233;-52
2023/07/06 12:46:51;;;;;;;3.75;2.28;;;;;;;;;;5079342;28;20703;-54
2023/07/06 12:49:23;;;;;;;4.28;2.30;;;;;;;;;;5091565;28;20218;-47
2023/07/06 12:51:56;;;;;;;4.88;2.13;;;;;;;;;;5092469;28;20257;-53
2023/07/06 12:54:28;;;;;;;6.50;3.05;;;;;;;;;;5092094;28;20686;-50
2023/07/06 12:57:03;;;;;;;4.53;2.13;;;;;;;;;;5090064;28;20217;-48
2023/07/06 12:59:33;;;;;;;5.10;2.25;;;;;;;;;;5092255;28;20214;-51
2023/07/06 13:02:17;;;;;;;3.97;2.50;;;;;;;;;;5092857;28;20214;-50
2023/07/06 13:04:47;;;;;;;2.90;2.00;;;;;;;;;;5091011;28;20214;-50
2023/07/06 13:07:20;;;;;;;3.88;2.47;;;;;;;;;;5090014;28;20237;-49
2023/07/06 13:09:48;;;;;;;3.20;2.40;;;;;;;;;;5092290;28;20215;-48
2023/07/06 13:12:24;;;;;;;8.73;2.45;;;;;;;;;;5089651;28;20313;-48
2023/07/06 13:14:52;;;;;;;2.60;1.88;;;;;;;;;;5092206;28;20222;-45
2023/07/06 13:17:25;;;;;;;4.03;2.40;;;;;;;;;;5092402;28;20222;-48
2023/07/06 13:19:54;;;;;;;5.93;2.40;;;;;;;;;;5092421;28;20324;-50
2023/07/06 13:22:21;;;;;;;6.40;2.63;;;;;;;;;;5092833;28;20249;-49
2023/07/06 13:24:49;;;;;;;4.32;2.45;;;;;;;;;;5091203;28;20242;-48
2023/07/06 13:27:17;;;;;;;4.85;2.25;;;;;;;;;;5091104;28;20721;-48
2023/07/06 13:29:45;;;;;;;3.10;2.20;;;;;;;;;;5092208;28;20229;-49
2023/07/06 13:32:17;;;;;;;4.60;2.67;;;;;;;;;;5092407;28;20237;-50
2023/07/06 13:34:49;;;;;;;3.38;2.33;;;;;;;;;;5091204;28;20223;-48
2023/07/06 13:37:23;;;;;;;3.40;2.35;;;;;;;;;;5092481;28;20219;-49
2023/07/06 13:39:51;;;;;;;7.30;2.40;;;;;;;;;;5092288;28;20280;-49
2023/07/06 13:42:23;;;;;;;5.10;2.60;;;;;;;;;;5092141;28;20903;-51
2023/07/06 13:44:51;;;;;;;4.38;2.60;;;;;;;;;;5092167;28;20606;-48
2023/07/06 13:47:18;;;;;;;4.35;2.22;;;;;;;;;;5091641;28;20233;-49
2023/07/06 13:49:50;;;;;;;11.93;2.47;;;;;;;;;;5092368;28;20272;-51
2023/07/06 13:52:20;;;;;;;2.60;2.22;;;;;;;;;;5092252;28;20234;-50
2023/07/06 13:54:48;;;;;;;6.93;2.60;;;;;;;;;;5092206;28;20241;-49
2023/07/06 13:57:15;;;;;;;4.57;2.35;;;;;;;;;;5092568;28;20222;-53
2023/07/06 13:59:42;;;;;;;3.85;2.60;;;;;;;;;;5095937;28;20230;-49
2023/07/06 14:02:10;;;;;;;3.38;2.10;;;;;;;;;;5095470;28;20226;-52
2023/07/06 14:04:42;;;;;;;5.85;2.47;;;;;;;;;;5095948;28;20226;-48
2023/07/06 14:07:10;;;;;;;4.10;2.40;;;;;;;;;;5095577;28;20233;-51
2023/07/06 14:09:37;;;;;;;3.30;2.28;;;;;;;;;;5095819;28;20231;-51
2023/07/06 14:12:06;;;;;;;3.53;2.28;;;;;;;;;;5095892;28;20582;-48
2023/07/06 14:14:34;;;;;;;4.30;2.63;;;;;;;;;;5095526;28;20234;-48
2023/07/06 14:17:03;;;;;;;3.55;2.40;;;;;;;;;;5095326;28;20721;-48
2023/07/06 14:19:33;;;;;;;4.95;2.92;;;;;;;;;;5083355;28;20231;-49
2023/07/06 14:22:05;;;;;;;4.43;2.50;;;;;;;;;;5075568;28;20276;-48
2023/07/06 14:24:32;;;;;;;3.85;2.72;;;;;;;;;;5075012;28;20250;-50
2023/07/06 14:26:59;;;;;;;3.22;2.22;;;;;;;;;;5075349;28;20226;-49
2023/07/06 14:29:27;;;;;;;3.45;2.25;;;;;;;;;;5075007;28;20231;-50
2023/07/06 14:31:54;;;;;;;4.63;2.25;;;;;;;;;;5073377;28;20270;-48
2023/07/06 14:34:22;;;;;;;4.95;2.35;;;;;;;;;;5074860;28;20227;-49
2023/07/06 14:36:50;;;;;;;4.30;2.40;;;;;;;;;;5075347;28;20223;-49
2023/07/06 14:39:19;;;;;;;4.13;2.50;;;;;;;;;;5074812;28;20594;-49
2023/07/06 14:41:46;;;;;;;3.03;2.15;;;;;;;;;;5074665;28;20215;-48
2023/07/06 14:44:14;;;;;;;3.70;2.40;;;;;;;;;;5074559;28;20223;-49
2023/07/06 14:46:41;;;;;;;8.10;2.83;;;;;;;;;;5074065;28;20231;-48
2023/07/06 14:49:08;;;;;;;3.22;2.28;;;;;;;;;;5098716;28;20547;-50
2023/07/06 14:51:36;;;;;;;3.67;2.38;;;;;;;;;;5093496;28;20230;-51
2023/07/06 14:54:03;;;;;;;3.88;2.47;;;;;;;;;;5094664;28;20711;-49
2023/07/06 14:56:31;;;;;;;5.50;2.80;;;;;;;;;;5092367;28;20314;-49
2023/07/06 14:58:58;;;;;;;4.15;2.45;;;;;;;;;;5090761;28;20226;-51
2023/07/06 15:01:25;;;;;;;6.93;2.35;;;;;;;;;;5094348;28;20310;-48
2023/07/06 15:03:53;;;;;;;3.75;2.38;;;;;;;;;;5094121;28;20233;-47
2023/07/06 15:06:21;;;;;;;4.30;2.40;;;;;;;;;;5093433;28;20230;-49
2023/07/06 15:08:48;;;;;;;3.33;2.35;;;;;;;;;;5094057;28;20230;-46